createdAt,value
2019-05-14T00:01:31.414Z,74.46
2019-05-14T00:04:02.928Z,74.18
2019-05-14T00:06:34.126Z,73.94
2019-05-14T00:09:06.724Z,73.44
2019-05-14T00:11:37.902Z,73.90
2019-05-14T00:14:11.430Z,73.92
2019-05-14T00:16:42.564Z,73.32
2019-05-14T00:19:14.105Z,73.40
2019-05-14T00:21:45.439Z,73.32
2019-05-14T00:24:16.651Z,72.67
2019-05-14T00:26:47.863Z,72.63
2019-05-14T00:29:21.857Z,73.50
2019-05-14T00:31:52.256Z,73.83
2019-05-14T00:34:23.478Z,74.37
2019-05-14T00:36:54.662Z,74.54
2019-05-14T00:39:26.017Z,74.53
2019-05-14T00:41:57.620Z,74.73
2019-05-14T00:44:28.906Z,74.27
2019-05-14T00:47:02.175Z,73.47
2019-05-14T00:49:33.143Z,73.28
2019-05-14T00:52:04.397Z,73.29
2019-05-14T00:54:36.396Z,73.32
2019-05-14T00:57:07.603Z,73.37
2019-05-14T00:59:38.811Z,73.47
2019-05-14T01:02:11.357Z,73.11
2019-05-14T01:04:43.172Z,73.25
2019-05-14T01:07:14.347Z,73.09
2019-05-14T01:09:45.807Z,72.07
2019-05-14T01:12:17.012Z,72.53
2019-05-14T01:14:48.671Z,72.56
2019-05-14T01:17:19.854Z,72.61
2019-05-14T01:19:51.474Z,72.96
2019-05-14T01:22:22.899Z,72.91
2019-05-14T01:24:54.171Z,72.99
2019-05-14T01:27:25.673Z,72.32
2019-05-14T01:29:56.866Z,72.31
2019-05-14T01:32:31.517Z,72.55
2019-05-14T01:35:02.668Z,73.09
2019-05-14T01:37:33.954Z,72.86
2019-05-14T01:40:05.683Z,73.68
2019-05-14T01:42:36.953Z,73.38
2019-05-14T01:45:21.904Z,73.63
2019-05-14T01:47:41.687Z,73.65
2019-05-14T01:50:15.822Z,73.79
2019-05-14T01:52:47.061Z,73.99
2019-05-14T01:55:18.419Z,73.75
2019-05-14T01:57:51.765Z,73.69
2019-05-14T02:00:23.926Z,73.72
2019-05-14T02:02:55.154Z,73.27
2019-05-14T02:05:26.637Z,73.84
2019-05-14T02:07:57.858Z,72.82
2019-05-14T02:10:31.499Z,73.09
2019-05-14T02:13:02.635Z,72.76
2019-05-14T02:15:39.646Z,72.98
2019-05-14T02:18:06.802Z,73.03
2019-05-14T02:20:38.316Z,73.02
2019-05-14T02:23:11.845Z,73.53
2019-05-14T02:25:42.609Z,73.65
2019-05-14T02:28:13.848Z,73.72
2019-05-14T02:30:55.973Z,73.65
2019-05-14T02:33:19.213Z,73.45
2019-05-14T02:35:50.789Z,72.96
2019-05-14T02:38:21.987Z,72.55
2019-05-14T02:40:53.797Z,72.68
2019-05-14T02:43:24.986Z,72.30
2019-05-14T02:46:09.047Z,72.29
2019-05-14T02:51:53.177Z,72.61
2019-05-14T02:54:24.830Z,72.65
2019-05-14T02:56:56.223Z,72.67
2019-05-14T02:59:30.622Z,72.41
2019-05-14T03:02:01.181Z,72.32
2019-05-14T03:04:32.569Z,72.52
2019-05-14T03:07:03.852Z,72.41
2019-05-14T03:09:35.268Z,72.44
2019-05-14T03:12:09.707Z,72.39
2019-05-14T03:14:40.201Z,72.54
2019-05-14T03:17:12.130Z,72.18
2019-05-14T03:19:43.514Z,72.16
2019-05-14T03:22:15.221Z,72.29
2019-05-14T03:24:46.506Z,72.55
2019-05-14T03:27:19.768Z,72.82
2019-05-14T03:29:51.327Z,72.40
2019-05-14T03:32:23.271Z,72.11
2019-05-14T03:34:55.118Z,72.15
2019-05-14T03:37:30.601Z,71.13
2019-05-14T03:39:59.836Z,71.47
2019-05-14T03:42:31.134Z,72.30
2019-05-14T03:45:02.643Z,73.14
2019-05-14T03:47:33.860Z,73.58
2019-05-14T03:50:05.358Z,74.23
2019-05-14T03:52:39.614Z,75.19
2019-05-14T03:55:09.963Z,75.00
2019-05-14T03:57:41.433Z,75.17
2019-05-14T04:00:12.863Z,76.17
2019-05-14T04:02:44.420Z,76.77
2019-05-14T04:05:18.764Z,76.30
2019-05-14T04:07:50.264Z,76.04
2019-05-14T04:10:22.234Z,76.16
2019-05-14T04:12:53.934Z,76.65
2019-05-14T04:15:29.633Z,76.54
2019-05-14T04:18:00.104Z,76.43
2019-05-14T04:20:33.138Z,76.95
2019-05-14T04:23:09.357Z,77.38
2019-05-14T04:25:41.657Z,77.15
2019-05-14T04:28:15.064Z,77.59
2019-05-14T04:30:49.343Z,77.76
2019-05-14T04:33:24.113Z,77.80
2019-05-14T04:35:59.866Z,77.68
2019-05-14T04:38:31.216Z,77.81
2019-05-14T04:41:02.510Z,77.76
2019-05-14T04:43:35.779Z,78.79
2019-05-14T04:46:10.431Z,78.76
2019-05-14T04:48:43.717Z,78.06
2019-05-14T04:51:13.272Z,78.59
2019-05-14T04:53:44.764Z,77.96
2019-05-14T04:56:19.275Z,78.78
2019-05-14T04:58:51.039Z,78.76
2019-05-14T05:01:22.364Z,78.91
2019-05-14T05:03:53.582Z,76.58
2019-05-14T05:06:24.835Z,75.30
2019-05-14T05:08:56.065Z,75.45
2019-05-14T05:11:29.131Z,74.68
2019-05-14T05:14:00.943Z,73.65
2019-05-14T05:16:32.172Z,72.28
2019-05-14T05:19:03.619Z,72.21
2019-05-14T05:21:35.171Z,71.77
2019-05-14T05:24:06.404Z,70.50
2019-05-14T05:26:39.253Z,69.89
2019-05-14T05:29:10.816Z,70.48
2019-05-14T05:31:42.043Z,69.58
2019-05-14T05:34:13.472Z,69.08
2019-05-14T05:36:44.673Z,69.45
2019-05-14T05:39:15.909Z,67.76
2019-05-14T05:41:49.203Z,68.16
2019-05-14T05:44:20.319Z,67.30
2019-05-14T05:46:51.544Z,67.96
2019-05-14T05:49:22.883Z,67.35
2019-05-14T05:51:54.371Z,67.64
2019-05-14T05:54:25.579Z,67.13
2019-05-14T05:56:58.184Z,67.05
2019-05-14T05:59:29.711Z,65.84
2019-05-14T06:02:01.789Z,66.29
2019-05-14T06:04:34.684Z,66.11
2019-05-14T06:07:06.228Z,66.28
2019-05-14T06:09:38.183Z,65.12
2019-05-14T06:12:09.781Z,65.52
2019-05-14T06:14:41.351Z,65.83
2019-05-14T06:17:12.540Z,66.58
2019-05-14T06:19:43.868Z,65.74
2019-05-14T06:22:15.214Z,64.46
2019-05-14T06:24:48.629Z,64.86
2019-05-14T06:27:19.512Z,62.89
2019-05-14T06:29:50.729Z,63.06
2019-05-14T06:32:21.960Z,63.41
2019-05-14T06:34:53.378Z,63.46
2019-05-14T06:37:24.583Z,62.69
2019-05-14T06:39:58.439Z,63.27
2019-05-14T06:42:29.223Z,63.64
2019-05-14T06:45:00.764Z,63.39
2019-05-14T06:47:32.644Z,62.38
2019-05-14T06:50:04.000Z,62.59
2019-05-14T06:52:35.215Z,62.53
2019-05-14T06:55:08.914Z,62.09
2019-05-14T06:57:40.004Z,61.75
2019-05-14T07:00:13.330Z,60.96
2019-05-14T07:02:44.569Z,62.09
2019-05-14T07:05:15.765Z,61.69
2019-05-14T07:07:49.320Z,60.78
2019-05-14T07:10:20.695Z,59.29
2019-05-14T07:12:54.969Z,59.97
2019-05-14T07:15:28.850Z,60.05
2019-05-14T07:17:59.321Z,60.37
2019-05-14T07:20:30.742Z,58.92
2019-05-14T07:23:02.381Z,56.28
2019-05-14T07:25:33.835Z,56.77
2019-05-14T07:28:05.053Z,56.11
2019-05-14T07:30:39.372Z,57.23
2019-05-14T07:33:09.671Z,55.31
2019-05-14T07:35:41.293Z,55.40
2019-05-14T07:38:12.900Z,54.72
2019-05-14T07:40:44.679Z,54.29
2019-05-14T07:43:15.907Z,55.11
2019-05-14T07:45:49.142Z,55.80
2019-05-14T07:48:20.022Z,53.42
2019-05-14T07:50:52.210Z,52.81
2019-05-14T07:53:35.174Z,52.27
2019-05-14T07:55:59.113Z,53.27
2019-05-14T07:58:29.887Z,53.63
2019-05-14T08:01:02.888Z,55.86
2019-05-14T08:03:38.210Z,54.85
2019-05-14T08:06:09.959Z,53.66
2019-05-14T08:08:41.606Z,53.70
2019-05-14T08:11:14.244Z,54.75
2019-05-14T08:13:49.376Z,51.44
2019-05-14T08:16:21.892Z,51.76
2019-05-14T08:18:53.177Z,52.78
2019-05-14T08:21:28.058Z,52.12
2019-05-14T08:23:59.323Z,51.97
2019-05-14T08:26:31.252Z,52.86
2019-05-14T08:29:02.677Z,54.50
2019-05-14T08:31:34.052Z,56.28
2019-05-14T08:34:06.683Z,59.20
2019-05-14T08:36:38.252Z,61.36
2019-05-14T08:39:09.570Z,61.49
2019-05-14T08:41:41.658Z,62.08
2019-05-14T08:44:12.892Z,62.58
2019-05-14T08:46:45.285Z,64.37
2019-05-14T08:49:18.447Z,66.17
2019-05-14T08:51:50.291Z,67.53
2019-05-14T08:54:21.729Z,68.83
2019-05-14T08:56:52.954Z,69.19
2019-05-14T08:59:24.180Z,69.21
2019-05-14T09:02:02.423Z,70.42
2019-05-14T09:04:30.622Z,71.54
2019-05-14T09:07:02.498Z,72.39
2019-05-14T09:09:33.678Z,73.96
2019-05-14T09:12:12.145Z,74.34
2019-05-14T09:14:40.392Z,74.41
2019-05-14T09:17:14.760Z,74.08
2019-05-14T09:20:01.036Z,72.94
2019-05-14T09:22:19.883Z,73.73
2019-05-14T09:24:51.347Z,74.14
2019-05-14T09:27:22.875Z,72.17
2019-05-14T09:29:54.854Z,70.69
2019-05-14T09:32:28.932Z,68.63
2019-05-14T09:34:59.317Z,69.15
2019-05-14T09:37:30.530Z,68.76
2019-05-14T09:40:03.064Z,67.92
2019-05-14T09:42:34.474Z,64.27
2019-05-14T09:45:10.511Z,61.37
2019-05-14T09:47:39.242Z,60.19
2019-05-14T09:50:22.742Z,58.78
2019-05-14T09:52:43.973Z,57.29
2019-05-14T09:55:18.128Z,57.25
2019-05-14T09:57:49.733Z,55.83
2019-05-14T10:00:20.935Z,56.25
2019-05-14T10:02:52.994Z,56.36
2019-05-14T10:05:24.580Z,54.20
2019-05-14T10:07:59.260Z,53.68
2019-05-14T10:10:32.843Z,56.69
2019-05-14T10:13:04.453Z,54.59
2019-05-14T10:15:38.951Z,52.35
2019-05-14T10:18:12.135Z,49.50
2019-05-14T10:20:45.990Z,49.49
2019-05-14T10:23:18.913Z,50.71
2019-05-14T10:25:49.939Z,50.70
2019-05-14T10:28:23.322Z,50.58
2019-05-14T10:30:54.919Z,52.03
2019-05-14T10:33:28.675Z,51.52
2019-05-14T10:36:01.225Z,44.12
2019-05-14T10:38:34.788Z,46.05
2019-05-14T10:41:05.952Z,48.26
2019-05-14T10:43:39.254Z,46.71
2019-05-14T10:46:10.552Z,46.02
2019-05-14T10:48:42.108Z,45.92
2019-05-14T10:51:13.320Z,46.17
2019-05-14T10:53:44.747Z,45.56
2019-05-14T10:56:19.047Z,43.48
2019-05-14T10:58:49.889Z,43.43
2019-05-14T11:01:23.042Z,42.80
2019-05-14T11:03:54.356Z,42.48
2019-05-14T11:06:25.553Z,44.72
2019-05-14T11:08:57.168Z,43.13
2019-05-14T11:11:29.054Z,41.55
2019-05-14T11:14:00.725Z,41.85
2019-05-14T11:16:31.915Z,40.80
2019-05-14T11:19:09.354Z,41.63
2019-05-14T11:21:40.379Z,43.18
2019-05-14T11:24:12.377Z,44.79
2019-05-14T11:26:45.165Z,41.29
2019-05-14T11:29:18.573Z,43.53
2019-05-14T11:31:49.335Z,41.03
2019-05-14T11:34:22.085Z,42.68
2019-05-14T11:36:53.408Z,41.68
2019-05-14T11:39:24.636Z,41.04
2019-05-14T11:41:58.750Z,41.24
2019-05-14T11:44:29.226Z,42.17
2019-05-14T11:47:02.651Z,43.09
2019-05-14T11:49:33.729Z,41.83
2019-05-14T11:52:09.712Z,40.95
2019-05-14T11:54:41.009Z,41.81
2019-05-14T11:57:11.997Z,42.29
2019-05-14T11:59:43.276Z,41.54
2019-05-14T12:02:14.989Z,43.81
2019-05-14T12:04:46.285Z,43.44
2019-05-14T12:07:18.708Z,43.23
2019-05-14T12:09:52.410Z,44.41
2019-05-14T12:12:23.768Z,43.94
2019-05-14T12:14:55.075Z,44.95
2019-05-14T12:17:29.340Z,45.83
2019-05-14T12:19:59.704Z,46.11
2019-05-14T12:22:32.140Z,46.74
2019-05-14T12:25:03.344Z,46.19
2019-05-14T12:27:34.566Z,47.80
2019-05-14T12:30:09.509Z,46.94
2019-05-14T12:32:40.012Z,47.24
2019-05-14T12:35:11.559Z,46.79
2019-05-14T12:37:42.946Z,47.23
2019-05-14T12:40:15.827Z,42.61
2019-05-14T12:42:49.649Z,44.99
2019-05-14T12:45:19.961Z,44.84
2019-05-14T12:47:51.186Z,45.90
2019-05-14T12:50:22.728Z,45.85
2019-05-14T12:52:54.237Z,45.35
2019-05-14T12:55:28.448Z,46.54
2019-05-14T12:57:59.644Z,46.02
2019-05-14T13:00:31.423Z,47.52
2019-05-14T13:03:02.807Z,48.75
2019-05-14T13:05:35.625Z,49.11
2019-05-14T13:08:11.222Z,49.76
2019-05-14T13:10:40.264Z,48.93
2019-05-14T13:13:11.606Z,47.20
2019-05-14T13:16:04.243Z,45.63
2019-05-14T13:18:52.500Z,45.94
2019-05-14T13:21:28.937Z,46.75
2019-05-14T13:24:00.141Z,47.81
2019-05-14T13:26:31.593Z,47.84
2019-05-14T13:29:07.070Z,48.59
2019-05-14T13:31:36.138Z,47.78
2019-05-14T13:34:08.881Z,47.66
2019-05-14T13:36:44.586Z,46.57
2019-05-14T13:39:13.501Z,48.57
2019-05-14T13:41:44.931Z,48.53
2019-05-14T13:44:24.332Z,49.14
2019-05-14T13:46:49.395Z,50.37
2019-05-14T13:49:20.855Z,50.49
2019-05-14T13:51:52.064Z,50.62
2019-05-14T13:54:23.682Z,50.09
2019-05-14T13:56:54.996Z,49.48
2019-05-14T13:59:26.199Z,49.56
2019-05-14T14:01:59.147Z,48.90
2019-05-14T14:04:31.265Z,50.12
2019-05-14T14:07:03.538Z,49.81
2019-05-14T14:09:34.752Z,50.47
2019-05-14T14:12:08.093Z,49.57
2019-05-14T14:14:39.009Z,50.02
2019-05-14T14:17:10.282Z,50.19
2019-05-14T14:23:21.111Z,49.04
2019-05-14T14:25:39.612Z,49.33
2019-05-14T14:28:11.489Z,52.05
2019-05-14T14:30:42.882Z,53.07
2019-05-14T14:33:14.386Z,55.36
2019-05-14T14:35:45.607Z,56.25
2019-05-14T14:38:19.754Z,59.00
2019-05-14T14:40:50.197Z,58.83
2019-05-14T14:43:22.113Z,59.28
2019-05-14T14:45:53.343Z,59.47
2019-05-14T14:48:24.729Z,58.47
2019-05-14T14:50:58.490Z,59.53
2019-05-14T14:53:44.971Z,59.46
2019-05-14T14:56:05.199Z,58.55
2019-05-14T14:58:36.453Z,58.10
2019-05-14T15:01:08.862Z,57.34
2019-05-14T15:03:49.362Z,57.70
2019-05-14T15:06:19.913Z,57.15
2019-05-14T15:08:51.511Z,56.08
2019-05-14T15:11:22.839Z,54.92
2019-05-14T15:13:54.379Z,55.00
2019-05-14T15:16:25.790Z,55.21
2019-05-14T15:18:58.279Z,55.87
2019-05-14T15:21:30.117Z,58.38
2019-05-14T15:24:09.841Z,58.76
2019-05-14T15:26:34.665Z,59.47
2019-05-14T15:29:05.918Z,60.62
2019-05-14T15:31:38.624Z,61.46
2019-05-14T15:34:10.075Z,64.21
2019-05-14T15:36:41.869Z,66.26
2019-05-14T15:39:13.608Z,65.77
2019-05-14T15:41:44.942Z,65.33
2019-05-14T15:44:16.125Z,65.20
2019-05-14T15:46:49.282Z,65.11
2019-05-14T15:49:20.258Z,65.72
2019-05-14T15:51:51.609Z,63.83
2019-05-14T15:54:39.861Z,64.94
2019-05-14T15:56:58.635Z,63.55
2019-05-14T15:59:29.244Z,64.03
2019-05-14T16:02:00.470Z,62.62
2019-05-14T16:04:31.973Z,61.97
2019-05-14T16:07:09.532Z,60.57
2019-05-14T16:09:41.079Z,62.14
2019-05-14T16:12:12.329Z,63.32
2019-05-14T16:14:43.715Z,62.17
2019-05-14T16:17:15.740Z,62.54
2019-05-14T16:19:48.737Z,63.76
2019-05-14T16:22:20.310Z,63.12
2019-05-14T16:25:00.865Z,63.53
2019-05-14T16:27:30.613Z,62.83
2019-05-14T16:30:02.041Z,61.99
2019-05-14T16:32:33.283Z,61.42
2019-05-14T16:35:04.988Z,61.38
2019-05-14T16:37:38.849Z,59.72
2019-05-14T16:40:09.584Z,59.83
2019-05-14T16:42:40.875Z,61.00
2019-05-14T16:45:12.717Z,60.05
2019-05-14T16:47:43.936Z,60.60
2019-05-14T16:50:15.371Z,60.41
2019-05-14T16:52:49.239Z,61.88
2019-05-14T16:55:26.439Z,62.97
2019-05-14T16:57:53.481Z,64.80
2019-05-14T17:00:24.854Z,65.40
2019-05-14T17:02:56.057Z,68.30
2019-05-14T17:05:29.945Z,67.49
2019-05-14T17:08:00.425Z,68.23
2019-05-14T17:10:31.898Z,68.70
2019-05-14T17:13:03.407Z,68.57
2019-05-14T17:15:34.658Z,68.87
2019-05-14T17:18:08.653Z,71.38
2019-05-14T17:20:39.563Z,72.34
2019-05-14T17:23:11.195Z,72.78
2019-05-14T17:25:43.982Z,71.53
2019-05-14T17:28:15.488Z,71.73
2019-05-14T17:30:49.135Z,72.01
2019-05-14T17:33:20.619Z,72.56
2019-05-14T17:35:51.869Z,71.96
2019-05-14T17:38:23.106Z,73.57
2019-05-14T17:40:54.635Z,73.19
2019-05-14T17:43:28.231Z,72.62
2019-05-14T17:45:59.087Z,73.29
2019-05-14T17:48:31.859Z,72.63
2019-05-14T17:51:03.192Z,72.80
2019-05-14T17:53:38.558Z,72.58
2019-05-14T17:56:10.142Z,71.94
2019-05-14T17:58:43.303Z,73.63
2019-05-14T18:01:14.666Z,74.41
2019-05-14T18:03:48.849Z,74.82
2019-05-14T18:06:19.258Z,74.83
2019-05-14T18:08:50.672Z,77.13
2019-05-14T18:11:22.128Z,76.34
2019-05-14T18:13:53.615Z,75.85
2019-05-14T18:16:25.028Z,75.55
2019-05-14T18:18:58.286Z,73.56
2019-05-14T18:21:29.293Z,73.45
2019-05-14T18:24:00.640Z,73.31
2019-05-14T18:26:31.925Z,73.70
2019-05-14T18:29:04.631Z,74.07
2019-05-14T18:31:36.118Z,74.92
2019-05-14T18:34:07.353Z,74.18
2019-05-14T18:36:39.510Z,74.30
2019-05-14T18:39:11.062Z,73.24
2019-05-14T18:41:42.284Z,73.20
2019-05-14T18:44:13.550Z,73.37
2019-05-14T18:46:45.143Z,74.15
2019-05-14T18:49:19.258Z,73.67
2019-05-14T18:51:50.326Z,75.21
2019-05-14T18:54:21.705Z,74.82
2019-05-14T18:56:52.921Z,74.76
2019-05-14T18:59:24.284Z,77.13
2019-05-14T19:01:55.650Z,76.56
2019-05-14T19:04:27.951Z,76.21
2019-05-14T19:06:59.797Z,76.22
2019-05-14T19:09:31.146Z,74.79
2019-05-14T19:12:02.324Z,75.37
2019-05-14T19:14:33.905Z,75.78
2019-05-14T19:17:05.951Z,75.85
2019-05-14T19:19:38.609Z,76.29
2019-05-14T19:22:10.248Z,76.81
2019-05-14T19:24:41.708Z,76.91
2019-05-14T19:27:12.952Z,77.30
2019-05-14T19:29:44.171Z,76.89
2019-05-14T19:32:15.426Z,77.27
2019-05-14T19:34:48.660Z,77.30
2019-05-14T19:37:19.765Z,77.13
2019-05-14T19:39:52.727Z,77.17
2019-05-14T19:42:25.756Z,76.33
2019-05-14T19:44:59.784Z,76.83
2019-05-14T19:47:30.214Z,77.12
2019-05-14T19:50:01.437Z,77.39
2019-05-14T19:52:32.668Z,77.63
2019-05-14T19:55:05.675Z,78.23
2019-05-14T19:57:38.349Z,78.37
2019-05-14T20:00:10.804Z,78.56
2019-05-14T20:02:42.629Z,77.71
2019-05-14T20:05:14.777Z,78.73
2019-05-14T20:07:46.311Z,78.46
2019-05-14T20:10:19.618Z,78.05
2019-05-14T20:12:51.081Z,77.71
2019-05-14T20:15:23.385Z,77.88
2019-05-14T20:17:58.048Z,77.96
2019-05-14T20:20:28.973Z,77.52
2019-05-14T20:23:00.292Z,77.13
2019-05-14T20:25:31.504Z,77.73
2019-05-14T20:28:02.982Z,78.16
2019-05-14T20:30:34.168Z,77.94
2019-05-14T20:33:08.552Z,78.18
2019-05-14T20:35:40.122Z,78.29
2019-05-14T20:38:11.348Z,78.90
2019-05-14T20:40:42.778Z,78.71
2019-05-14T20:43:15.695Z,77.44
2019-05-14T20:45:48.851Z,77.58
2019-05-14T20:48:20.382Z,78.05
2019-05-14T20:50:51.715Z,78.65
2019-05-14T20:53:22.931Z,78.53
2019-05-14T20:55:54.250Z,79.09
2019-05-14T20:58:27.810Z,78.69
2019-05-14T21:01:02.417Z,78.95
2019-05-14T21:03:34.020Z,79.08
2019-05-14T21:06:05.254Z,78.84
2019-05-14T21:08:38.005Z,80.77
2019-05-14T21:11:09.533Z,81.04
2019-05-14T21:13:40.784Z,80.07
2019-05-14T21:16:12.253Z,79.73
2019-05-14T21:18:43.620Z,79.45
2019-05-14T21:21:15.815Z,80.94
2019-05-14T21:23:49.027Z,80.01
2019-05-14T21:26:20.407Z,80.68
2019-05-14T21:28:52.167Z,80.91
2019-05-14T21:31:23.406Z,80.94
2019-05-14T21:33:54.919Z,80.74
2019-05-14T21:36:28.248Z,80.81
2019-05-14T21:38:59.860Z,80.59
2019-05-14T21:41:31.126Z,80.38
2019-05-14T21:44:02.358Z,80.56
2019-05-14T21:46:33.750Z,80.32
2019-05-14T21:49:04.993Z,80.03
2019-05-14T21:51:36.508Z,80.50
2019-05-14T21:54:09.434Z,80.90
2019-05-14T21:56:41.525Z,81.11
2019-05-14T21:59:13.103Z,81.34
2019-05-14T22:01:45.484Z,80.10
2019-05-14T22:04:18.683Z,81.03
2019-05-14T22:06:50.367Z,81.83
2019-05-14T22:09:23.182Z,81.76
2019-05-14T22:11:58.274Z,81.52
2019-05-14T22:14:29.563Z,80.91
2019-05-14T22:17:00.832Z,80.90
2019-05-14T22:19:32.082Z,80.43
2019-05-14T22:22:03.518Z,80.96
2019-05-14T22:24:34.887Z,81.85
2019-05-14T22:27:06.182Z,80.69
2019-05-14T22:29:37.945Z,81.19
2019-05-14T22:32:09.335Z,81.39
2019-05-14T22:34:41.457Z,81.48
2019-05-14T22:37:12.802Z,81.58
2019-05-14T22:39:44.321Z,81.41
2019-05-14T22:42:15.623Z,81.96
2019-05-14T22:44:50.152Z,82.03
2019-05-14T22:47:20.401Z,82.33
2019-05-14T22:49:51.739Z,81.83
2019-05-14T22:52:23.097Z,82.40
2019-05-14T22:54:54.342Z,82.23
2019-05-14T22:57:25.853Z,81.67
2019-05-14T22:59:58.075Z,81.54
2019-05-14T23:02:29.715Z,82.13
2019-05-14T23:05:01.186Z,82.36
2019-05-14T23:07:32.510Z,82.33
2019-05-14T23:10:04.010Z,81.91
2019-05-14T23:12:35.236Z,81.82
2019-05-14T23:15:06.735Z,81.18
2019-05-14T23:17:38.934Z,81.96
2019-05-14T23:20:10.626Z,82.39
2019-05-14T23:22:42.237Z,82.84
2019-05-14T23:25:13.475Z,82.23
2019-05-14T23:27:47.639Z,81.95
2019-05-14T23:30:23.209Z,82.36
2019-05-14T23:32:54.400Z,82.82
2019-05-14T23:35:28.211Z,82.94
2019-05-14T23:37:59.026Z,82.33
2019-05-14T23:40:30.263Z,83.62
2019-05-14T23:43:01.615Z,83.92
2019-05-14T23:45:33.121Z,83.29
2019-05-14T23:48:04.315Z,83.40
2019-05-14T23:50:37.772Z,82.75
2019-05-14T23:53:09.392Z,82.98
2019-05-14T23:55:40.664Z,82.96
2019-05-14T23:58:12.001Z,82.42
